createdAt,value
2023-05-17T00:00:47.031Z,-23422.31
2023-05-17T00:02:49.690Z,-23419.94
2023-05-17T00:04:53.508Z,-23420.25
2023-05-17T00:06:56.365Z,-23421.50
2023-05-17T00:08:59.056Z,-23419.59
2023-05-17T00:11:01.827Z,-23418.34
2023-05-17T00:13:05.880Z,-23420.56
2023-05-17T00:15:09.255Z,-23420.41
2023-05-17T00:17:11.971Z,-23417.69
2023-05-17T00:19:14.890Z,-23415.31
2023-05-17T00:21:17.834Z,-23412.94
2023-05-17T00:23:20.506Z,-23409.59
2023-05-17T00:25:23.170Z,-23412.63
2023-05-17T00:27:25.878Z,-23409.75
2023-05-17T00:29:29.907Z,-23408.81
2023-05-17T00:31:32.597Z,-23413.09
2023-05-17T00:33:35.318Z,-23411.03
2023-05-17T00:35:37.946Z,-23411.66
2023-05-17T00:37:40.651Z,-23410.41
2023-05-17T00:39:43.544Z,-23407.84
2023-05-17T00:41:46.344Z,-23408.81
2023-05-17T00:43:49.045Z,-23408.00
2023-05-17T00:45:53.107Z,-23408.16
2023-05-17T00:47:55.933Z,-23405.63
2023-05-17T00:49:58.799Z,-23406.28
2023-05-17T00:52:01.867Z,-23407.06
2023-05-17T00:54:05.582Z,-23408.97
2023-05-17T00:56:08.615Z,-23412.31
2023-05-17T00:58:11.663Z,-23408.50
2023-05-17T01:00:15.096Z,-23410.41
2023-05-17T01:02:19.188Z,-23408.50
2023-05-17T01:04:22.053Z,-23408.66
2023-05-17T01:06:25.135Z,-23407.22
2023-05-17T01:08:27.852Z,-23407.84
2023-05-17T01:10:38.316Z,-23414.53
2023-05-17T01:12:51.837Z,-23405.00
2023-05-17T01:15:06.334Z,-23408.50
2023-05-17T01:17:15.604Z,-23407.53
2023-05-17T01:19:44.389Z,-23409.75
2023-05-17T01:22:04.329Z,-23412.13
2023-05-17T01:24:21.942Z,-23411.50
2023-05-17T01:26:40.180Z,-23409.44
2023-05-17T01:28:46.132Z,-23406.28
2023-05-17T01:30:52.462Z,-23409.75
2023-05-17T01:32:57.912Z,-23407.53
2023-05-17T01:35:00.753Z,-23410.06
2023-05-17T01:37:03.399Z,-23409.75
2023-05-17T01:39:06.069Z,-23410.41
2023-05-17T01:41:15.037Z,-23409.44
2023-05-17T01:43:26.040Z,-23410.06
2023-05-17T01:45:34.679Z,-23409.13
2023-05-17T01:47:44.287Z,-23408.81
2023-05-17T01:49:54.066Z,-23405.63
2023-05-17T01:51:59.781Z,-23405.31
2023-05-17T01:54:05.062Z,-23404.69
2023-05-17T01:56:11.018Z,-23405.00
2023-05-17T01:58:14.177Z,-23403.41
2023-05-17T02:00:20.419Z,-23400.72
2023-05-17T02:02:23.884Z,-23401.50
2023-05-17T02:04:26.555Z,-23399.28
2023-05-17T02:06:29.603Z,-23403.09
2023-05-17T02:08:32.376Z,-23401.19
2023-05-17T02:10:35.074Z,-23400.53
2023-05-17T02:12:37.731Z,-23396.88
2023-05-17T02:14:40.540Z,-23395.78
2023-05-17T02:16:44.576Z,-23394.34
2023-05-17T02:18:47.326Z,-23393.88
2023-05-17T02:20:50.141Z,-23390.69
2023-05-17T02:22:52.979Z,-23396.09
2023-05-17T02:24:55.942Z,-23389.75
2023-05-17T02:26:58.778Z,-23392.28
2023-05-17T02:29:01.513Z,-23388.47
2023-05-17T02:31:04.309Z,-23391.34
2023-05-17T02:33:08.753Z,-23393.41
2023-05-17T02:35:11.553Z,-23388.16
2023-05-17T02:37:14.296Z,-23387.84
2023-05-17T02:39:17.074Z,-23385.28
2023-05-17T02:41:19.804Z,-23385.59
2023-05-17T02:43:22.569Z,-23378.94
2023-05-17T02:45:25.227Z,-23377.66
2023-05-17T02:47:28.116Z,-23378.78
2023-05-17T02:49:32.285Z,-23382.44
2023-05-17T02:51:35.015Z,-23379.25
2023-05-17T02:53:37.740Z,-23381.63
2023-05-17T02:55:40.459Z,-23380.84
2023-05-17T02:57:43.155Z,-23382.59
2023-05-17T02:59:45.906Z,-23379.56
2023-05-17T03:01:49.815Z,-23374.81
2023-05-17T03:03:52.706Z,-23372.91
2023-05-17T03:06:01.285Z,-23374.00
2023-05-17T03:08:04.142Z,-23371.00
2023-05-17T03:10:08.049Z,-23370.34
2023-05-17T03:12:11.422Z,-23367.66
2023-05-17T03:14:14.188Z,-23366.84
2023-05-17T03:16:16.870Z,-23367.16
2023-05-17T03:18:19.649Z,-23367.16
2023-05-17T03:20:22.567Z,-23364.31
2023-05-17T03:22:26.672Z,-23366.53
2023-05-17T03:24:29.312Z,-23364.00
2023-05-17T03:26:33.446Z,-23365.44
2023-05-17T03:28:36.168Z,-23364.94
2023-05-17T03:30:38.999Z,-23366.22
2023-05-17T03:32:42.194Z,-23363.66
2023-05-17T03:34:45.009Z,-23361.44
2023-05-17T03:36:47.963Z,-23361.44
2023-05-17T03:38:52.188Z,-23361.44
2023-05-17T03:40:55.942Z,-23363.03
2023-05-17T03:42:58.678Z,-23364.94
2023-05-17T03:45:01.533Z,-23360.50
2023-05-17T03:47:04.230Z,-23362.41
2023-05-17T03:49:07.061Z,-23363.03
2023-05-17T03:51:10.138Z,-23361.44
2023-05-17T03:53:13.054Z,-23362.72
2023-05-17T03:55:17.184Z,-23362.72
2023-05-17T03:57:20.795Z,-23362.06
2023-05-17T03:59:23.653Z,-23360.81
2023-05-17T04:01:26.393Z,-23360.16
2023-05-17T04:03:29.205Z,-23365.44
2023-05-17T04:05:32.825Z,-23366.38
2023-05-17T04:07:35.561Z,-23366.22
2023-05-17T04:09:38.197Z,-23367.50
2023-05-17T04:11:42.576Z,-23368.13
2023-05-17T04:13:45.306Z,-23367.34
2023-05-17T04:15:47.972Z,-23372.91
2023-05-17T04:17:50.983Z,-23371.78
2023-05-17T04:19:53.846Z,-23376.41
2023-05-17T04:21:56.659Z,-23379.25
2023-05-17T04:23:59.472Z,-23379.88
2023-05-17T04:26:03.152Z,-23375.59
2023-05-17T04:28:07.211Z,-23376.06
2023-05-17T04:30:10.824Z,-23378.78
2023-05-17T04:32:14.184Z,-23379.88
2023-05-17T04:34:16.895Z,-23389.25
2023-05-17T04:36:19.653Z,-23390.06
2023-05-17T04:38:26.806Z,-23401.97
2023-05-17T04:40:37.973Z,-23398.00
2023-05-17T04:42:42.738Z,-23410.72
2023-05-17T04:44:46.872Z,-23413.25
2023-05-17T04:46:49.632Z,-23420.88
2023-05-17T04:48:53.361Z,-23430.72
2023-05-17T04:50:56.216Z,-23432.00
2023-05-17T04:52:59.498Z,-23434.84
2023-05-17T04:55:03.270Z,-23428.50
2023-05-17T04:57:06.450Z,-23416.59
2023-05-17T04:59:09.214Z,-23426.28
2023-05-17T05:01:13.256Z,-23444.06
2023-05-17T05:03:15.993Z,-23427.06
2023-05-17T05:05:19.739Z,-23452.63
2023-05-17T05:07:22.423Z,-23447.72
2023-05-17T05:09:25.083Z,-23437.88
2023-05-17T05:11:27.821Z,-23431.34
2023-05-17T05:13:30.999Z,-23421.81
2023-05-17T05:15:33.903Z,-23427.38
2023-05-17T05:17:38.056Z,-23419.75
2023-05-17T05:19:40.879Z,-23416.75
2023-05-17T05:21:46.046Z,-23416.44
2023-05-17T05:23:48.757Z,-23418.19
2023-05-17T05:25:51.762Z,-23416.09
2023-05-17T05:27:54.476Z,-23422.63
2023-05-17T05:29:57.190Z,-23422.00
2023-05-17T05:31:59.883Z,-23427.22
2023-05-17T05:34:04.284Z,-23423.41
2023-05-17T05:36:07.864Z,-23439.47
2023-05-17T05:38:10.645Z,-23432.63
2023-05-17T05:40:14.366Z,-23429.28
2023-05-17T05:42:17.028Z,-23412.31
2023-05-17T05:44:19.879Z,-23421.81
2023-05-17T05:46:22.640Z,-23423.25
2023-05-17T05:48:25.551Z,-23425.47
2023-05-17T05:50:29.923Z,-23429.44
2023-05-17T05:52:32.899Z,-23435.81
2023-05-17T05:54:35.604Z,-23429.44
2023-05-17T05:56:38.272Z,-23425.00
2023-05-17T05:58:40.969Z,-23432.00
2023-05-17T06:00:43.700Z,-23438.66
2023-05-17T06:02:46.936Z,-23436.28
2023-05-17T06:04:49.844Z,-23442.78
2023-05-17T06:06:55.724Z,-23447.53
2023-05-17T06:08:59.789Z,-23452.00
2023-05-17T06:11:02.661Z,-23451.03
2023-05-17T06:13:05.384Z,-23459.91
2023-05-17T06:15:09.512Z,-23478.63
2023-05-17T06:17:12.242Z,-23487.19
2023-05-17T06:19:15.169Z,-23461.50
2023-05-17T06:21:18.528Z,-23479.25
2023-05-17T06:23:22.707Z,-23484.66
2023-05-17T06:25:25.381Z,-23484.19
2023-05-17T06:27:28.116Z,-23498.13
2023-05-17T06:29:30.769Z,-23477.69
2023-05-17T06:31:33.472Z,-23483.38
2023-05-17T06:33:36.246Z,-23491.94
2023-05-17T06:35:54.839Z,-23476.09
2023-05-17T06:37:58.675Z,-23465.31
2023-05-17T06:40:15.485Z,-23496.38
2023-05-17T06:42:19.643Z,-23471.03
2023-05-17T06:44:22.356Z,-23478.00
2023-05-17T06:46:25.141Z,-23459.28
2023-05-17T06:48:27.898Z,-23489.09
2023-05-17T06:50:32.203Z,-23478.78
2023-05-17T06:52:35.946Z,-23499.06
2023-05-17T06:54:38.645Z,-23504.00
2023-05-17T06:56:44.096Z,-23511.28
2023-05-17T06:58:46.840Z,-23516.66
2023-05-17T07:00:49.685Z,-23528.84
2023-05-17T07:02:52.866Z,-23550.22
2023-05-17T07:04:56.833Z,-23532.50
2023-05-17T07:06:59.578Z,-23511.59
2023-05-17T07:09:02.316Z,-23518.25
2023-05-17T07:11:05.262Z,-23512.06
2023-05-17T07:13:09.368Z,-23518.56
2023-05-17T07:15:12.682Z,-23545.78
2023-05-17T07:17:15.412Z,-23573.16
2023-05-17T07:19:18.302Z,-23539.78
2023-05-17T07:21:21.330Z,-23543.41
2023-05-17T07:23:24.067Z,-23538.19
2023-05-17T07:25:26.981Z,-23509.69
2023-05-17T07:27:29.880Z,-23554.97
2023-05-17T07:29:33.947Z,-23559.06
2023-05-17T07:31:36.833Z,-23556.06
2023-05-17T07:33:39.748Z,-23523.63
2023-05-17T07:35:42.439Z,-23500.81
2023-05-17T07:37:45.972Z,-23503.69
2023-05-17T07:39:48.692Z,-23524.56
2023-05-17T07:41:51.582Z,-23520.16
2023-05-17T07:43:54.315Z,-23518.72
2023-05-17T07:45:58.658Z,-23553.69
2023-05-17T07:48:01.492Z,-23513.66
2023-05-17T07:50:04.706Z,-23532.19
2023-05-17T07:52:07.703Z,-23549.13
2023-05-17T07:54:10.415Z,-23573.31
2023-05-17T07:56:13.099Z,-23578.69
2023-05-17T07:58:15.928Z,-23573.63
2023-05-17T08:00:19.812Z,-23555.13
2023-05-17T08:02:23.844Z,-23556.53
2023-05-17T08:04:26.640Z,-23609.19
2023-05-17T08:06:29.407Z,-23626.88
2023-05-17T08:08:32.135Z,-23630.97
2023-05-17T08:10:36.008Z,-23604.75
2023-05-17T08:12:38.691Z,-23616.44
2023-05-17T08:14:41.380Z,-23593.84
2023-05-17T08:16:44.252Z,-23640.44
2023-05-17T08:18:48.473Z,-23577.09
2023-05-17T08:20:51.362Z,-23626.72
2023-05-17T08:22:56.090Z,-23643.13
2023-05-17T08:24:58.808Z,-23649.59
2023-05-17T08:27:02.137Z,-23613.75
2023-05-17T08:29:05.738Z,-23585.97
2023-05-17T08:31:08.512Z,-23603.03
2023-05-17T08:33:12.037Z,-23637.13
2023-05-17T08:35:16.092Z,-23615.03
2023-05-17T08:37:19.012Z,-23623.88
2023-05-17T08:39:22.054Z,-23642.47
2023-05-17T08:41:25.816Z,-23597.97
2023-05-17T08:43:29.261Z,-23606.19
2023-05-17T08:45:32.401Z,-23604.28
2023-05-17T08:47:37.929Z,-23599.22
2023-05-17T08:49:40.852Z,-23605.22
2023-05-17T08:51:47.653Z,-23580.28
2023-05-17T08:53:51.146Z,-23584.38
2023-05-17T08:56:02.395Z,-23596.22
2023-05-17T08:58:07.161Z,-23567.16
2023-05-17T09:00:14.469Z,-23571.41
2023-05-17T09:02:17.598Z,-23576.47
2023-05-17T09:04:20.567Z,-23571.09
2023-05-17T09:06:25.046Z,-23526.78
2023-05-17T09:08:32.864Z,-23561.78
2023-05-17T09:10:35.684Z,-23526.78
2023-05-17T09:12:38.413Z,-23527.59
2023-05-17T09:14:41.066Z,-23542.63
2023-05-17T09:16:44.615Z,-23547.38
2023-05-17T09:18:54.810Z,-23585.66
2023-05-17T09:21:02.609Z,-23568.88
2023-05-17T09:23:05.459Z,-23586.75
2023-05-17T09:25:10.290Z,-23581.84
2023-05-17T09:27:16.848Z,-23566.03
2023-05-17T09:29:19.374Z,-23559.88
2023-05-17T09:31:22.160Z,-23583.44
2023-05-17T09:33:24.870Z,-23606.50
2023-05-17T09:35:31.868Z,-23574.56
2023-05-17T09:37:34.638Z,-23579.94
2023-05-17T09:39:37.989Z,-23566.50
2023-05-17T09:41:48.038Z,-23570.31
2023-05-17T09:43:51.458Z,-23551.16
2023-05-17T09:45:58.660Z,-23563.50
2023-05-17T09:48:13.768Z,-23584.38
2023-05-17T09:50:19.751Z,-23606.81
2023-05-17T09:52:22.701Z,-23597.34
2023-05-17T09:54:25.392Z,-23590.06
2023-05-17T09:56:30.088Z,-23584.06
2023-05-17T09:58:37.193Z,-23585.00
2023-05-17T10:00:40.548Z,-23571.25
2023-05-17T10:02:47.119Z,-23574.41
2023-05-17T10:04:51.758Z,-23585.81
2023-05-17T10:06:55.006Z,-23586.75
2023-05-17T10:09:00.058Z,-23605.53
2023-05-17T10:11:08.011Z,-23574.25
2023-05-17T10:13:14.000Z,-23573.94
2023-05-17T10:15:18.557Z,-23595.13
2023-05-17T10:17:21.984Z,-23599.69
2023-05-17T10:19:26.408Z,-23606.66
2023-05-17T10:21:29.963Z,-23573.78
2023-05-17T10:23:32.990Z,-23568.56
2023-05-17T10:25:36.694Z,-23563.66
2023-05-17T10:27:39.660Z,-23577.91
2023-05-17T10:29:42.770Z,-23580.59
2023-05-17T10:31:47.887Z,-23605.72
2023-05-17T10:33:52.557Z,-23622.75
2023-05-17T10:35:57.234Z,-23604.28
2023-05-17T10:37:59.988Z,-23639.34
2023-05-17T10:40:03.010Z,-23642.31
2023-05-17T10:42:14.961Z,-23659.69
2023-05-17T10:44:18.809Z,-23619.91
2023-05-17T10:46:22.313Z,-23591.97
2023-05-17T10:48:30.997Z,-23571.09
2023-05-17T10:50:33.901Z,-23586.28
2023-05-17T10:52:40.144Z,-23609.34
2023-05-17T10:54:44.272Z,-23631.13
2023-05-17T10:56:51.143Z,-23611.22
2023-05-17T10:59:22.710Z,-23636.19
2023-05-17T11:01:56.390Z,-23619.44
2023-05-17T11:04:25.883Z,-23638.88
2023-05-17T11:06:36.670Z,-23618.19
2023-05-17T11:08:46.180Z,-23627.19
2023-05-17T11:11:11.455Z,-23601.59
2023-05-17T11:13:23.767Z,-23588.63
2023-05-17T11:15:26.798Z,-23591.66
2023-05-17T11:17:36.704Z,-23600.81
2023-05-17T11:19:49.925Z,-23594.50
2023-05-17T11:21:52.715Z,-23602.06
2023-05-17T11:23:57.420Z,-23574.72
2023-05-17T11:26:16.219Z,-23607.28
2023-05-17T11:28:21.408Z,-23612.19
2023-05-17T11:30:26.720Z,-23597.66
2023-05-17T11:32:30.195Z,-23581.38
2023-05-17T11:34:34.843Z,-23615.03
2023-05-17T11:36:52.227Z,-23598.91
2023-05-17T11:39:11.917Z,-23584.06
2023-05-17T11:43:27.342Z,-23572.69
2023-05-17T11:45:36.429Z,-23565.56
2023-05-17T11:47:43.122Z,-23564.78
2023-05-17T11:49:46.543Z,-23549.28
2023-05-17T11:51:51.311Z,-23553.53
2023-05-17T11:53:56.002Z,-23548.31
2023-05-17T11:56:03.296Z,-23557.19
2023-05-17T11:58:08.117Z,-23546.59
2023-05-17T12:00:12.219Z,-23549.59
2023-05-17T12:02:27.677Z,-23565.72
2023-05-17T12:04:32.622Z,-23572.84
2023-05-17T12:06:36.557Z,-23567.94
2023-05-17T12:08:44.253Z,-23567.63
2023-05-17T12:10:49.419Z,-23570.78
2023-05-17T12:12:52.319Z,-23569.84
2023-05-17T12:14:55.034Z,-23574.88
2023-05-17T12:17:02.499Z,-23582.78
2023-05-17T12:19:05.319Z,-23577.72
2023-05-17T12:21:09.143Z,-23543.09
2023-05-17T12:23:11.872Z,-23572.19
2023-05-17T12:25:23.551Z,-23570.16
2023-05-17T12:27:27.424Z,-23594.81
2023-05-17T12:29:30.970Z,-23565.09
2023-05-17T12:31:35.735Z,-23583.59
2023-05-17T12:33:41.277Z,-23584.06
2023-05-17T12:35:44.294Z,-23580.28
2023-05-17T12:37:47.246Z,-23577.56
2023-05-17T12:39:50.075Z,-23587.84
2023-05-17T12:41:54.724Z,-23595.44
2023-05-17T12:44:13.858Z,-23603.34
2023-05-17T12:46:20.398Z,-23590.69
2023-05-17T12:48:27.217Z,-23580.28
2023-05-17T12:50:31.321Z,-23582.63
2023-05-17T12:52:37.170Z,-23573.63
2023-05-17T12:54:40.758Z,-23573.00
2023-05-17T12:56:44.629Z,-23578.84
2023-05-17T12:59:06.113Z,-23571.72
2023-05-17T13:01:13.628Z,-23565.88
2023-05-17T13:03:16.518Z,-23552.13
2023-05-17T13:05:21.567Z,-23547.69
2023-05-17T13:07:25.115Z,-23551.97
2023-05-17T13:09:30.819Z,-23544.53
2023-05-17T13:11:35.964Z,-23556.72
2023-05-17T13:13:38.909Z,-23552.75
2023-05-17T13:15:46.325Z,-23552.59
2023-05-17T13:17:51.072Z,-23555.91
2023-05-17T13:19:54.025Z,-23567.63
2023-05-17T13:21:56.822Z,-23560.81
2023-05-17T13:23:59.488Z,-23563.50
2023-05-17T13:26:02.149Z,-23565.09
2023-05-17T13:28:04.969Z,-23557.03
2023-05-17T13:30:09.297Z,-23564.13
2023-05-17T13:32:14.259Z,-23554.34
2023-05-17T13:34:16.964Z,-23574.88
2023-05-17T13:36:19.679Z,-23577.09
2023-05-17T13:38:22.309Z,-23561.94
2023-05-17T13:40:24.976Z,-23555.75
2023-05-17T13:42:27.739Z,-23557.50
2023-05-17T13:44:30.591Z,-23561.44
2023-05-17T13:46:33.506Z,-23545.94
2023-05-17T13:48:39.175Z,-23551.81
2023-05-17T13:50:43.876Z,-23547.69
2023-05-17T13:52:46.629Z,-23549.91
2023-05-17T13:54:49.269Z,-23573.00
2023-05-17T13:56:52.221Z,-23566.97
2023-05-17T13:58:54.934Z,-23565.72
2023-05-17T14:00:57.748Z,-23556.22
2023-05-17T14:03:00.554Z,-23564.78
2023-05-17T14:05:05.444Z,-23561.94
2023-05-17T14:07:08.172Z,-23573.00
2023-05-17T14:09:11.807Z,-23579.78
2023-05-17T14:11:14.541Z,-23582.47
2023-05-17T14:13:17.262Z,-23582.00
2023-05-17T14:15:19.950Z,-23586.13
2023-05-17T14:17:22.684Z,-23575.84
2023-05-17T14:19:25.479Z,-23590.53
2023-05-17T14:21:29.670Z,-23597.00
2023-05-17T14:23:32.344Z,-23590.84
2023-05-17T14:25:35.018Z,-23582.16
2023-05-17T14:27:37.818Z,-23570.00
2023-05-17T14:29:40.630Z,-23576.47
2023-05-17T14:31:43.405Z,-23568.88
2023-05-17T14:33:46.227Z,-23563.19
2023-05-17T14:35:49.239Z,-23561.28
2023-05-17T14:37:53.285Z,-23562.72
2023-05-17T14:40:05.782Z,-23557.19
2023-05-17T14:42:09.362Z,-23574.88
2023-05-17T14:44:12.151Z,-23567.78
2023-05-17T14:46:15.129Z,-23562.25
2023-05-17T14:48:17.902Z,-23567.47
2023-05-17T14:50:20.817Z,-23559.72
2023-05-17T14:52:23.690Z,-23560.81
2023-05-17T14:54:29.793Z,-23571.88
2023-05-17T14:56:32.907Z,-23573.00
2023-05-17T14:58:35.780Z,-23581.53
2023-05-17T15:00:38.563Z,-23587.38
2023-05-17T15:02:41.323Z,-23573.47
2023-05-17T15:04:44.138Z,-23577.72
2023-05-17T15:06:47.030Z,-23567.47
2023-05-17T15:08:49.695Z,-23582.31
2023-05-17T15:10:54.493Z,-23587.53
2023-05-17T15:12:57.409Z,-23580.09
2023-05-17T15:15:00.157Z,-23570.31
2023-05-17T15:17:04.218Z,-23573.47
2023-05-17T15:19:07.660Z,-23566.66
2023-05-17T15:21:11.373Z,-23564.13
2023-05-17T15:23:14.021Z,-23567.94
2023-05-17T15:25:16.954Z,-23561.94
2023-05-17T15:27:21.055Z,-23563.19
2023-05-17T15:29:23.750Z,-23564.63
2023-05-17T15:31:28.568Z,-23556.53
2023-05-17T15:33:32.216Z,-23562.88
2023-05-17T15:35:35.070Z,-23556.88
2023-05-17T15:37:37.876Z,-23555.91
2023-05-17T15:39:40.566Z,-23550.53
2023-05-17T15:41:45.511Z,-23553.84
2023-05-17T15:43:49.613Z,-23545.78
2023-05-17T15:45:52.349Z,-23547.06
2023-05-17T15:47:56.603Z,-23546.25
2023-05-17T15:49:59.363Z,-23548.63
2023-05-17T15:52:02.126Z,-23554.34
2023-05-17T15:54:05.153Z,-23550.22
2023-05-17T15:56:10.016Z,-23563.03
2023-05-17T15:58:12.699Z,-23553.06
2023-05-17T16:00:17.420Z,-23547.69
2023-05-17T16:02:20.104Z,-23555.28
2023-05-17T16:04:22.837Z,-23554.66
2023-05-17T16:06:25.858Z,-23554.03
2023-05-17T16:08:28.622Z,-23555.13
2023-05-17T16:10:31.295Z,-23552.44
2023-05-17T16:12:33.979Z,-23542.16
2023-05-17T16:14:37.161Z,-23545.16
2023-05-17T16:16:42.106Z,-23537.09
2023-05-17T16:18:45.375Z,-23534.06
2023-05-17T16:20:48.230Z,-23531.69
2023-05-17T16:22:52.017Z,-23537.88
2023-05-17T16:24:55.240Z,-23544.38
2023-05-17T16:26:59.028Z,-23549.75
2023-05-17T16:29:01.797Z,-23553.53
2023-05-17T16:31:05.533Z,-23554.03
2023-05-17T16:33:09.721Z,-23555.59
2023-05-17T16:35:12.757Z,-23548.63
2023-05-17T16:37:15.809Z,-23557.50
2023-05-17T16:39:18.478Z,-23556.53
2023-05-17T16:41:21.255Z,-23547.38
2023-05-17T16:43:23.996Z,-23543.56
2023-05-17T16:45:26.630Z,-23532.19
2023-05-17T16:47:29.498Z,-23531.69
2023-05-17T16:49:33.603Z,-23530.91
2023-05-17T16:51:36.354Z,-23530.13
2023-05-17T16:53:39.089Z,-23533.44
2023-05-17T16:55:42.117Z,-23529.16
2023-05-17T16:57:44.803Z,-23537.25
2023-05-17T16:59:47.502Z,-23537.25
2023-05-17T17:01:50.261Z,-23535.81
2023-05-17T17:03:53.029Z,-23535.19
2023-05-17T17:05:57.087Z,-23537.56
2023-05-17T17:07:59.893Z,-23535.03
2023-05-17T17:10:02.560Z,-23532.19
2023-05-17T17:12:20.175Z,-23536.59
2023-05-17T17:14:26.130Z,-23535.19
2023-05-17T17:16:29.288Z,-23537.72
2023-05-17T17:18:32.274Z,-23534.38
2023-05-17T17:20:35.058Z,-23534.06
2023-05-17T17:22:39.184Z,-23536.28
2023-05-17T17:24:41.889Z,-23536.59
2023-05-17T17:26:45.071Z,-23533.75
2023-05-17T17:28:47.741Z,-23532.34
2023-05-17T17:30:50.744Z,-23528.38
2023-05-17T17:32:53.514Z,-23528.38
2023-05-17T17:34:56.338Z,-23533.28
2023-05-17T17:36:59.257Z,-23532.81
2023-05-17T17:39:03.350Z,-23535.19
2023-05-17T17:41:06.312Z,-23534.22
2023-05-17T17:43:09.142Z,-23534.38
2023-05-17T17:45:12.108Z,-23538.50
2023-05-17T17:47:14.963Z,-23529.34
2023-05-17T17:49:17.706Z,-23529.00
2023-05-17T17:51:20.389Z,-23527.75
2023-05-17T17:53:23.323Z,-23527.44
2023-05-17T17:55:27.611Z,-23530.59
2023-05-17T17:57:31.916Z,-23534.06
2023-05-17T17:59:34.792Z,-23526.47
2023-05-17T18:01:38.313Z,-23524.41
2023-05-17T18:03:41.043Z,-23526.78
2023-05-17T18:05:43.860Z,-23522.84
2023-05-17T18:07:46.568Z,-23521.41
2023-05-17T18:09:49.396Z,-23524.25
2023-05-17T18:11:53.434Z,-23529.66
2023-05-17T18:13:56.538Z,-23526.78
2023-05-17T18:15:59.933Z,-23526.31
2023-05-17T18:18:02.690Z,-23529.16
2023-05-17T18:20:07.115Z,-23531.53
2023-05-17T18:22:09.774Z,-23522.69
2023-05-17T18:24:12.501Z,-23523.00
2023-05-17T18:26:15.206Z,-23520.16
2023-05-17T18:28:26.865Z,-23517.94
2023-05-17T18:30:40.763Z,-23516.50
2023-05-17T18:32:43.534Z,-23519.50
2023-05-17T18:34:46.408Z,-23517.13
2023-05-17T18:36:49.117Z,-23510.31
2023-05-17T18:38:52.488Z,-23512.53
2023-05-17T18:40:55.206Z,-23506.53
2023-05-17T18:42:57.902Z,-23510.81
2023-05-17T18:45:01.989Z,-23510.31
2023-05-17T18:47:04.791Z,-23510.31
2023-05-17T18:49:07.719Z,-23503.03
2023-05-17T18:51:10.621Z,-23498.28
2023-05-17T18:53:14.495Z,-23498.13
2023-05-17T18:55:17.258Z,-23496.72
2023-05-17T18:57:20.063Z,-23494.97
2023-05-17T18:59:22.746Z,-23491.94
2023-05-17T19:01:27.360Z,-23496.38
2023-05-17T19:03:30.118Z,-23495.75
2023-05-17T19:05:32.999Z,-23499.88
2023-05-17T19:07:35.728Z,-23488.78
2023-05-17T19:09:38.811Z,-23493.22
2023-05-17T19:11:42.147Z,-23485.91
2023-05-17T19:13:45.105Z,-23486.56
2023-05-17T19:15:48.739Z,-23488.94
2023-05-17T19:17:52.902Z,-23490.38
2023-05-17T19:19:55.660Z,-23486.09
2023-05-17T19:22:00.436Z,-23481.66
2023-05-17T19:24:03.454Z,-23483.06
2023-05-17T19:26:06.146Z,-23484.66
2023-05-17T19:28:08.893Z,-23483.38
2023-05-17T19:30:12.485Z,-23482.75
2023-05-17T19:32:15.380Z,-23480.53
2023-05-17T19:34:19.384Z,-23479.91
2023-05-17T19:36:22.043Z,-23479.75
2023-05-17T19:38:24.736Z,-23477.03
2023-05-17T19:40:27.825Z,-23482.13
2023-05-17T19:42:30.903Z,-23485.28
2023-05-17T19:44:33.769Z,-23479.25
2023-05-17T19:46:36.500Z,-23470.69
2023-05-17T19:48:39.920Z,-23481.47
2023-05-17T19:50:44.111Z,-23479.44
2023-05-17T19:52:47.058Z,-23471.66
2023-05-17T19:54:49.726Z,-23468.50
2023-05-17T19:56:52.476Z,-23466.44
2023-05-17T19:58:55.252Z,-23468.00
2023-05-17T20:00:57.893Z,-23462.94
2023-05-17T20:03:00.970Z,-23459.44
2023-05-17T20:05:03.810Z,-23458.03
2023-05-17T20:07:08.491Z,-23462.31
2023-05-17T20:09:11.152Z,-23463.09
2023-05-17T20:11:14.132Z,-23459.91
2023-05-17T20:13:18.987Z,-23457.22
2023-05-17T20:15:22.776Z,-23458.03
2023-05-17T20:17:25.522Z,-23458.66
2023-05-17T20:19:28.357Z,-23455.78
2023-05-17T20:21:31.780Z,-23455.47
2023-05-17T20:23:36.174Z,-23452.63
2023-05-17T20:25:40.973Z,-23452.31
2023-05-17T20:27:44.660Z,-23450.25
2023-05-17T20:29:47.385Z,-23449.94
2023-05-17T20:31:50.677Z,-23449.44
2023-05-17T20:33:54.789Z,-23447.06
2023-05-17T20:35:58.922Z,-23448.19
2023-05-17T20:38:01.635Z,-23448.66
2023-05-17T20:40:09.161Z,-23447.06
2023-05-17T20:42:18.195Z,-23453.56
2023-05-17T20:44:21.802Z,-23450.09
2023-05-17T20:46:24.621Z,-23450.56
2023-05-17T20:48:27.603Z,-23451.50
2023-05-17T20:50:30.659Z,-23452.00
2023-05-17T20:52:39.388Z,-23449.44
2023-05-17T20:54:42.938Z,-23448.34
2023-05-17T20:56:47.805Z,-23448.50
2023-05-17T20:58:50.576Z,-23447.38
2023-05-17T21:00:53.654Z,-23444.84
2023-05-17T21:02:56.341Z,-23443.91
2023-05-17T21:05:00.763Z,-23443.25
2023-05-17T21:07:03.506Z,-23441.53
2023-05-17T21:09:06.516Z,-23441.53
2023-05-17T21:11:09.453Z,-23439.59
2023-05-17T21:13:14.675Z,-23441.34
2023-05-17T21:15:17.611Z,-23442.16
2023-05-17T21:17:20.337Z,-23436.44
2023-05-17T21:19:23.102Z,-23438.66
2023-05-17T21:21:25.945Z,-23438.97
2023-05-17T21:23:28.742Z,-23435.16
2023-05-17T21:25:31.746Z,-23435.00
2023-05-17T21:27:35.057Z,-23441.84
2023-05-17T21:29:39.171Z,-23442.78
2023-05-17T21:31:41.888Z,-23439.78
2023-05-17T21:33:44.679Z,-23439.28
2023-05-17T21:35:47.456Z,-23440.25
2023-05-17T21:37:50.359Z,-23438.34
2023-05-17T21:39:53.044Z,-23438.97
2023-05-17T21:41:55.760Z,-23437.72
2023-05-17T21:43:58.457Z,-23436.28
2023-05-17T21:46:02.658Z,-23431.69
2023-05-17T21:48:06.119Z,-23437.06
2023-05-17T21:50:09.264Z,-23432.94
2023-05-17T21:52:12.063Z,-23437.41
2023-05-17T21:54:14.823Z,-23430.41
2023-05-17T21:56:17.660Z,-23431.84
2023-05-17T21:58:21.270Z,-23430.72
2023-05-17T22:00:26.933Z,-23430.72
2023-05-17T22:02:31.175Z,-23430.09
2023-05-17T22:04:33.912Z,-23430.09
2023-05-17T22:06:36.727Z,-23428.97
2023-05-17T22:08:42.171Z,-23428.66
2023-05-17T22:10:44.847Z,-23427.72
2023-05-17T22:12:54.186Z,-23424.06
2023-05-17T22:14:57.489Z,-23421.19
2023-05-17T22:17:00.366Z,-23420.25
2023-05-17T22:19:06.034Z,-23420.56
2023-05-17T22:21:08.910Z,-23421.81
2023-05-17T22:23:11.880Z,-23418.66
2023-05-17T22:25:15.793Z,-23424.38
2023-05-17T22:27:19.766Z,-23425.63
2023-05-17T22:29:22.601Z,-23417.38
2023-05-17T22:31:26.215Z,-23422.78
2023-05-17T22:33:31.054Z,-23421.66
2023-05-17T22:35:35.152Z,-23423.72
2023-05-17T22:37:37.897Z,-23420.25
2023-05-17T22:39:41.797Z,-23418.34
2023-05-17T22:41:44.576Z,-23413.88
2023-05-17T22:43:47.312Z,-23414.22
2023-05-17T22:45:50.640Z,-23412.31
2023-05-17T22:47:54.210Z,-23410.06
2023-05-17T22:49:57.639Z,-23409.13
2023-05-17T22:52:05.328Z,-23411.03
2023-05-17T22:54:08.074Z,-23407.84
2023-05-17T22:56:10.777Z,-23403.56
2023-05-17T22:58:13.495Z,-23406.09
2023-05-17T23:00:17.226Z,-23402.78
2023-05-17T23:02:20.040Z,-23403.72
2023-05-17T23:04:25.876Z,-23405.78
2023-05-17T23:06:32.067Z,-23404.69
2023-05-17T23:08:36.274Z,-23401.81
2023-05-17T23:10:38.921Z,-23404.69
2023-05-17T23:12:41.609Z,-23403.25
2023-05-17T23:14:44.383Z,-23404.34
2023-05-17T23:16:47.041Z,-23398.78
2023-05-17T23:18:49.718Z,-23399.91
2023-05-17T23:20:52.574Z,-23398.97
2023-05-17T23:22:55.264Z,-23398.31
2023-05-17T23:25:00.297Z,-23397.53
2023-05-17T23:27:03.059Z,-23395.78
2023-05-17T23:29:05.769Z,-23393.88
2023-05-17T23:31:08.508Z,-23393.72
2023-05-17T23:33:11.622Z,-23393.56
2023-05-17T23:35:14.312Z,-23394.19
2023-05-17T23:37:17.240Z,-23393.22
2023-05-17T23:39:19.986Z,-23393.88